Airfield :
LOGIN :

Register | Disclaimer

   EN    FR    IT 

 










Legend :    VFR   Marginal VFR   IFR   Intensive IFR   Very Intensive IFR
Visi :
Ceiling :
>= 8 km
>= 3000ft
5 to 8 km
1000 to 3000 ft
1500m to 5 km
500 to 1000 ft
800 to 1500m
200 to 500 ft
< 800m
< 200 ft
Symbols :   Thunderstorms  Fog  Heavy snow  Heavy precipitations  Wind > 20 kt
SIGMETs :     Misc.  Thunderstorms  Icing  Turbulence  Mountain Waves  Volcanic Ashes






- Airport Elevation : 137 ft
- IATA code : THN


ESGT - Trollhattan-Vanersborg

CURRENT METAR :
  • 180320Z AUTO 16005KT 9000 BKN007/// 08/08 Q1008

EXPIRED METARs :
  • 180250Z AUTO 18004KT 9999 OVC009/// 09/08 Q1008
  • 180220Z AUTO 19004KT 9999 SCT010/// OVC066/// 09/09 Q1008
  • 180150Z AUTO 14005KT 9999 OVC062/// 10/09 Q1008
  • 180120Z AUTO 17005KT 9999 OVC062/// 10/09 Q1008
  • 180050Z AUTO 18005KT 9999 SCT042/// OVC055/// 10/09 Q1008
  • 180020Z AUTO 18004KT 9999 SCT037/// OVC045/// 10/09 Q1008

Expired Forecast.



MET'MAP, your aeronautical weather chart ! - Copyright ORBIFLY December 2007 - Disclaimer

ORBIFLY MET'MAP TEAM :

Programming & Development : Alexandra Zaïnal
Concept & Development : Baudouin d'Aumeries
Co-Development & Prog : Marc-Olivier Méhu
Technical & hardware support : Manuel Goepfert

Contact : metmap@orbifly.com




SOURCES & CREDITS :

   NOAA